Time;durP1;ratioP1;P1;durP2;ratioP2;P2;SDS_P1;SDS_P2;PMS_P1;PMS_P2;Temp;Humidity;BMP_temperature;BMP_pressure;BME280_temperature;BME280_humidity;BME280_pressure;Samples;Min_cycle;Max_cycle;Signal;HPM_P1;HPM_P2
2023/12/04 00:01:21;;;;;;;30.20;15.30;;;;;;;;;;5095846;28;20923;-81
2023/12/04 00:03:47;;;;;;;28.93;16.27;;;;;;;;;;5096015;28;20466;-81
2023/12/04 00:06:13;;;;;;;35.50;15.80;;;;;;;;;;5095728;28;20402;-82
2023/12/04 00:08:39;;;;;;;29.33;17.13;;;;;;;;;;5096026;28;20444;-83
2023/12/04 00:11:06;;;;;;;22.30;13.83;;;;;;;;;;5095812;28;20832;-81
2023/12/04 00:13:32;;;;;;;19.67;14.13;;;;;;;;;;5095422;28;20464;-84
2023/12/04 00:15:58;;;;;;;21.60;13.43;;;;;;;;;;5095441;28;20516;-82
2023/12/04 00:18:24;;;;;;;30.73;15.90;;;;;;;;;;5095782;28;20439;-82
2023/12/04 00:20:49;;;;;;;28.33;12.97;;;;;;;;;;5095733;28;20895;-82
2023/12/04 00:23:15;;;;;;;30.63;17.33;;;;;;;;;;5095554;28;20472;-83
2023/12/04 00:25:41;;;;;;;30.60;15.80;;;;;;;;;;5095585;28;20398;-82
2023/12/04 00:28:07;;;;;;;28.43;14.93;;;;;;;;;;5095507;28;20478;-83
2023/12/04 00:30:33;;;;;;;16.97;10.73;;;;;;;;;;5095347;28;20427;-82
2023/12/04 00:33:02;;;;;;;31.50;16.10;;;;;;;;;;5095471;28;20754;-83
2023/12/04 00:35:34;;;;;;;25.00;15.57;;;;;;;;;;5076887;28;20910;-83
2023/12/04 00:38:00;;;;;;;29.50;16.43;;;;;;;;;;5095008;28;20879;-82
2023/12/04 00:40:26;;;;;;;26.93;16.50;;;;;;;;;;5095122;28;20487;-82
2023/12/04 00:42:52;;;;;;;30.43;16.13;;;;;;;;;;5093989;28;20475;-82
2023/12/04 00:45:18;;;;;;;29.23;16.20;;;;;;;;;;5094189;28;20406;-82
2023/12/04 00:47:44;;;;;;;33.50;16.00;;;;;;;;;;5075987;28;20494;-83
2023/12/04 00:50:11;;;;;;;30.30;18.13;;;;;;;;;;5076398;28;20419;-82
2023/12/04 00:52:37;;;;;;;30.80;17.63;;;;;;;;;;5094795;28;20413;-82
2023/12/04 00:55:03;;;;;;;24.20;15.30;;;;;;;;;;5094922;28;20500;-83
2023/12/04 00:57:29;;;;;;;24.77;13.90;;;;;;;;;;5094830;28;20431;-84
2023/12/04 00:59:55;;;;;;;25.03;15.37;;;;;;;;;;5094620;28;20424;-81
2023/12/04 01:02:21;;;;;;;32.60;16.33;;;;;;;;;;5094844;28;20462;-81
2023/12/04 01:04:47;;;;;;;28.40;16.57;;;;;;;;;;5094908;28;20414;-82
2023/12/04 01:07:13;;;;;;;31.20;17.27;;;;;;;;;;5054064;28;20797;-81
2023/12/04 01:09:39;;;;;;;25.57;13.97;;;;;;;;;;5094884;28;20413;-80
2023/12/04 01:12:05;;;;;;;26.00;14.50;;;;;;;;;;5094796;28;20427;-81
2023/12/04 01:14:31;;;;;;;28.70;16.53;;;;;;;;;;5094816;28;20455;-82
2023/12/04 01:16:57;;;;;;;27.13;17.30;;;;;;;;;;5094283;28;20562;-83
2023/12/04 01:19:23;;;;;;;28.93;17.03;;;;;;;;;;5094569;28;20413;-82
2023/12/04 01:21:49;;;;;;;30.07;16.43;;;;;;;;;;5076484;28;20783;-83
2023/12/04 01:24:16;;;;;;;29.77;14.43;;;;;;;;;;5094525;28;20436;-83
2023/12/04 01:26:42;;;;;;;24.70;14.57;;;;;;;;;;5094372;28;20406;-81
2023/12/04 01:29:08;;;;;;;30.23;16.33;;;;;;;;;;5094436;28;20893;-83
2023/12/04 01:31:34;;;;;;;31.63;16.10;;;;;;;;;;5093951;28;20410;-82
2023/12/04 01:34:00;;;;;;;30.03;17.57;;;;;;;;;;5076195;28;20437;-83
2023/12/04 01:36:26;;;;;;;26.27;15.50;;;;;;;;;;5094305;28;20418;-83
2023/12/04 01:38:51;;;;;;;32.40;17.07;;;;;;;;;;5076062;28;20425;-83
2023/12/04 01:41:17;;;;;;;33.53;17.20;;;;;;;;;;5093826;28;20492;-83
2023/12/04 01:43:46;;;;;;;35.93;19.03;;;;;;;;;;5094102;28;20472;-84
2023/12/04 01:46:14;;;;;;;21.73;14.70;;;;;;;;;;5093765;28;20432;-81
2023/12/04 01:48:40;;;;;;;19.23;11.83;;;;;;;;;;5090950;28;20417;-85
2023/12/04 01:51:07;;;;;;;28.87;17.67;;;;;;;;;;5075598;28;20983;-83
2023/12/04 01:53:33;;;;;;;29.30;16.43;;;;;;;;;;5075430;28;20497;-81
2023/12/04 01:55:59;;;;;;;30.47;18.23;;;;;;;;;;5075721;28;20406;-85
2023/12/04 01:58:25;;;;;;;28.90;16.10;;;;;;;;;;5075802;28;20420;-82
2023/12/04 02:00:51;;;;;;;26.27;15.10;;;;;;;;;;5093580;28;20768;-84
2023/12/04 02:03:17;;;;;;;32.90;16.37;;;;;;;;;;5075583;28;20819;-82
2023/12/04 02:05:45;;;;;;;27.13;14.73;;;;;;;;;;5093793;28;20413;-84
2023/12/04 02:08:11;;;;;;;27.53;15.40;;;;;;;;;;5075429;28;20567;-83
2023/12/04 02:10:38;;;;;;;36.57;18.27;;;;;;;;;;5075353;28;20406;-84
2023/12/04 02:13:04;;;;;;;17.07;9.40;;;;;;;;;;5093716;28;20406;-83
2023/12/04 02:15:30;;;;;;;32.27;15.10;;;;;;;;;;5093226;28;20411;-84
2023/12/04 02:17:56;;;;;;;20.73;11.67;;;;;;;;;;5093529;28;20468;-83
2023/12/04 02:20:31;;;;;;;28.03;16.27;;;;;;;;;;5093465;28;20767;-84
2023/12/04 02:22:56;;;;;;;31.03;16.73;;;;;;;;;;5093406;28;20929;-84
2023/12/04 02:25:22;;;;;;;23.97;12.53;;;;;;;;;;5093473;28;20438;-81
2023/12/04 02:27:53;;;;;;;29.37;16.97;;;;;;;;;;5075235;28;20503;-82
2023/12/04 02:30:21;;;;;;;26.17;15.70;;;;;;;;;;5092958;28;20417;-83
2023/12/04 02:32:48;;;;;;;27.53;17.83;;;;;;;;;;5093334;28;20416;-81
2023/12/04 02:35:19;;;;;;;24.07;14.23;;;;;;;;;;5093291;28;20491;-81
2023/12/04 02:37:47;;;;;;;31.23;16.90;;;;;;;;;;5091022;28;20410;-82
2023/12/04 02:40:16;;;;;;;29.57;14.00;;;;;;;;;;5093197;28;20445;-82
2023/12/04 02:42:42;;;;;;;31.40;15.80;;;;;;;;;;5090280;28;20469;-81
2023/12/04 02:45:08;;;;;;;24.77;14.43;;;;;;;;;;5092721;28;20407;-82
2023/12/04 02:47:34;;;;;;;28.17;14.93;;;;;;;;;;5093044;28;20766;-82
2023/12/04 02:50:00;;;;;;;29.63;17.33;;;;;;;;;;5092995;28;20408;-82
2023/12/04 02:52:26;;;;;;;30.20;16.27;;;;;;;;;;5092991;28;20418;-81
2023/12/04 02:54:52;;;;;;;25.30;14.80;;;;;;;;;;5092948;28;20435;-82
2023/12/04 02:57:18;;;;;;;34.27;16.27;;;;;;;;;;5092952;28;20419;-83
2023/12/04 02:59:44;;;;;;;26.60;13.77;;;;;;;;;;5092530;28;20406;-83
2023/12/04 03:02:10;;;;;;;28.63;14.53;;;;;;;;;;5092767;28;20456;-82
2023/12/04 03:04:44;;;;;;;28.47;15.33;;;;;;;;;;5092171;28;20441;-82
2023/12/04 03:07:10;;;;;;;26.73;15.50;;;;;;;;;;5050883;28;20480;-81
2023/12/04 03:09:36;;;;;;;24.70;13.63;;;;;;;;;;5092617;28;20497;-81
2023/12/04 03:12:02;;;;;;;28.07;13.47;;;;;;;;;;5092775;28;20790;-81
2023/12/04 03:14:28;;;;;;;31.67;14.70;;;;;;;;;;5092261;28;20409;-81
2023/12/04 03:16:54;;;;;;;26.43;15.30;;;;;;;;;;5092639;28;20497;-81
2023/12/04 03:19:20;;;;;;;23.27;13.60;;;;;;;;;;5092690;28;20412;-80
2023/12/04 03:21:46;;;;;;;32.27;15.20;;;;;;;;;;5092573;28;20413;-80
2023/12/04 03:24:12;;;;;;;29.80;15.20;;;;;;;;;;5092529;28;20897;-81
2023/12/04 03:26:38;;;;;;;24.00;13.77;;;;;;;;;;5092374;28;20415;-81
2023/12/04 03:29:03;;;;;;;25.00;12.97;;;;;;;;;;5092462;28;20909;-82
2023/12/04 03:31:34;;;;;;;25.07;13.23;;;;;;;;;;5092061;28;20488;-81
2023/12/04 03:34:00;;;;;;;25.93;13.70;;;;;;;;;;5092493;28;20415;-80
2023/12/04 03:36:25;;;;;;;23.13;12.23;;;;;;;;;;5092498;28;20416;-82
2023/12/04 03:38:51;;;;;;;28.70;14.90;;;;;;;;;;5092380;28;20931;-81
2023/12/04 03:41:17;;;;;;;23.83;15.80;;;;;;;;;;5092363;28;20411;-80
2023/12/04 03:43:44;;;;;;;22.30;12.40;;;;;;;;;;5092308;28;20470;-82
2023/12/04 03:46:13;;;;;;;28.13;14.10;;;;;;;;;;5092094;28;20420;-81
2023/12/04 03:48:38;;;;;;;25.53;12.73;;;;;;;;;;5092306;28;20395;-81
2023/12/04 03:51:05;;;;;;;28.03;14.63;;;;;;;;;;5092630;28;20892;-83
2023/12/04 03:53:31;;;;;;;18.17;11.13;;;;;;;;;;5092379;28;20406;-86
2023/12/04 03:56:00;;;;;;;19.90;11.93;;;;;;;;;;5092887;28;20499;-82
2023/12/04 03:58:26;;;;;;;24.23;14.33;;;;;;;;;;5101050;28;20399;-81
2023/12/04 04:00:52;;;;;;;24.60;13.90;;;;;;;;;;5091996;28;20805;-81
2023/12/04 04:03:18;;;;;;;22.00;12.07;;;;;;;;;;5092165;28;20459;-83
2023/12/04 04:05:44;;;;;;;22.07;12.13;;;;;;;;;;5092095;28;20410;-81
2023/12/04 04:08:10;;;;;;;23.87;12.67;;;;;;;;;;5092148;28;20502;-83
2023/12/04 04:10:37;;;;;;;23.97;12.60;;;;;;;;;;5074053;28;20918;-82
2023/12/04 04:13:03;;;;;;;22.07;12.33;;;;;;;;;;5089604;28;20412;-81
2023/12/04 04:15:28;;;;;;;16.00;10.33;;;;;;;;;;5073634;28;20466;-82
2023/12/04 04:18:00;;;;;;;22.37;12.20;;;;;;;;;;5095905;28;20459;-82
2023/12/04 04:20:26;;;;;;;19.63;11.13;;;;;;;;;;5093905;28;20412;-81
2023/12/04 04:22:53;;;;;;;24.50;12.67;;;;;;;;;;5095736;28;21003;-81
2023/12/04 04:25:21;;;;;;;27.10;13.43;;;;;;;;;;5077590;28;20410;-81
2023/12/04 04:27:47;;;;;;;21.70;10.20;;;;;;;;;;5096318;28;20415;-81
2023/12/04 04:30:13;;;;;;;19.93;11.70;;;;;;;;;;5095746;28;20405;-84
2023/12/04 04:32:39;;;;;;;22.03;11.23;;;;;;;;;;5096124;28;20423;-84
2023/12/04 04:35:05;;;;;;;9.17;5.60;;;;;;;;;;5096160;28;20410;-82
2023/12/04 04:37:31;;;;;;;21.00;10.77;;;;;;;;;;5096030;28;20503;-85
2023/12/04 04:39:57;;;;;;;23.27;13.73;;;;;;;;;;5044284;28;20914;-82
2023/12/04 04:42:23;;;;;;;14.73;8.50;;;;;;;;;;5091189;28;20475;-82
2023/12/04 04:44:49;;;;;;;15.20;9.40;;;;;;;;;;5095490;28;20412;-84
2023/12/04 04:47:15;;;;;;;24.50;13.80;;;;;;;;;;5095800;28;20416;-84
2023/12/04 04:49:42;;;;;;;26.60;13.00;;;;;;;;;;5077527;28;20518;-84
2023/12/04 04:52:08;;;;;;;24.30;14.20;;;;;;;;;;5095726;28;20410;-84
2023/12/04 04:54:36;;;;;;;21.67;11.77;;;;;;;;;;5095588;28;20972;-83
2023/12/04 04:57:02;;;;;;;20.90;12.30;;;;;;;;;;5077407;28;20415;-83
2023/12/04 04:59:31;;;;;;;17.77;11.13;;;;;;;;;;5095161;28;20414;-83
2023/12/04 05:01:57;;;;;;;25.67;11.97;;;;;;;;;;5095491;28;20412;-84
2023/12/04 05:04:23;;;;;;;16.70;9.27;;;;;;;;;;5095475;28;20412;-84
2023/12/04 05:06:49;;;;;;;21.47;12.50;;;;;;;;;;5095113;28;20468;-83
2023/12/04 05:09:16;;;;;;;19.60;13.67;;;;;;;;;;5095398;28;20408;-83
2023/12/04 05:11:42;;;;;;;18.57;11.40;;;;;;;;;;5095347;28;21043;-83
2023/12/04 05:14:08;;;;;;;19.80;11.00;;;;;;;;;;5094901;28;20445;-83
2023/12/04 05:16:37;;;;;;;21.93;13.20;;;;;;;;;;5095032;28;20497;-82
2023/12/04 05:19:03;;;;;;;21.77;12.03;;;;;;;;;;5095170;28;20417;-83
2023/12/04 05:21:31;;;;;;;21.90;13.07;;;;;;;;;;5095193;28;20414;-84
2023/12/04 05:23:57;;;;;;;21.90;13.30;;;;;;;;;;5094991;28;20480;-83
2023/12/04 05:26:23;;;;;;;22.17;11.37;;;;;;;;;;5095118;28;20409;-83
2023/12/04 05:28:49;;;;;;;17.20;9.00;;;;;;;;;;5094377;28;20508;-82
2023/12/04 05:31:15;;;;;;;19.50;12.30;;;;;;;;;;5094773;28;20916;-83
2023/12/04 05:33:41;;;;;;;12.33;8.17;;;;;;;;;;5094944;28;20894;-84
2023/12/04 05:36:07;;;;;;;16.27;10.50;;;;;;;;;;5094825;28;20407;-83
2023/12/04 05:38:33;;;;;;;24.40;13.60;;;;;;;;;;5076779;28;21028;-83
2023/12/04 05:40:59;;;;;;;17.10;9.43;;;;;;;;;;5094654;28;20433;-83
2023/12/04 05:43:25;;;;;;;21.40;11.00;;;;;;;;;;5094540;28;20472;-84
2023/12/04 05:45:51;;;;;;;21.13;13.23;;;;;;;;;;5094374;28;20405;-84
2023/12/04 05:48:17;;;;;;;14.97;8.23;;;;;;;;;;5094594;28;20783;-83
2023/12/04 05:50:43;;;;;;;22.80;13.80;;;;;;;;;;5094565;28;20402;-84
2023/12/04 05:53:09;;;;;;;22.87;13.53;;;;;;;;;;5094537;28;20417;-83
2023/12/04 05:55:35;;;;;;;19.03;12.00;;;;;;;;;;5094532;28;20400;-83
2023/12/04 05:58:02;;;;;;;26.47;14.70;;;;;;;;;;5094446;28;20877;-85
2023/12/04 06:00:27;;;;;;;20.90;14.00;;;;;;;;;;5094003;28;20435;-84
2023/12/04 06:02:53;;;;;;;21.53;12.40;;;;;;;;;;5094293;28;20504;-86
2023/12/04 06:05:19;;;;;;;31.77;15.93;;;;;;;;;;5094330;28;20967;-86
2023/12/04 06:07:45;;;;;;;25.83;14.60;;;;;;;;;;5094050;28;20469;-85
2023/12/04 06:10:11;;;;;;;22.37;12.20;;;;;;;;;;5094271;28;20406;-85
2023/12/04 06:12:37;;;;;;;28.30;14.10;;;;;;;;;;5093962;28;20418;-85
2023/12/04 06:15:03;;;;;;;21.63;11.70;;;;;;;;;;5093825;28;20475;-82
2023/12/04 06:17:29;;;;;;;29.83;14.27;;;;;;;;;;5094007;28;20444;-82
2023/12/04 06:19:55;;;;;;;24.77;15.17;;;;;;;;;;5075735;28;20463;-83
2023/12/04 06:22:21;;;;;;;27.33;14.40;;;;;;;;;;5076419;28;20487;-82
2023/12/04 06:24:47;;;;;;;23.47;12.67;;;;;;;;;;5071267;28;20506;-83
2023/12/04 06:27:16;;;;;;;26.83;15.70;;;;;;;;;;5093861;28;20937;-82
2023/12/04 06:29:51;;;;;;;25.17;12.43;;;;;;;;;;5093466;28;20432;-82
2023/12/04 06:32:17;;;;;;;21.87;13.73;;;;;;;;;;5093691;28;20398;-82
2023/12/04 06:34:43;;;;;;;55.47;26.00;;;;;;;;;;5093653;28;20449;-82
2023/12/04 06:37:12;;;;;;;36.80;20.30;;;;;;;;;;5093605;28;20396;-82
2023/12/04 06:39:39;;;;;;;28.13;14.27;;;;;;;;;;5092803;28;20411;-83
2023/12/04 06:42:06;;;;;;;23.23;14.00;;;;;;;;;;5093546;28;20904;-82
2023/12/04 06:44:32;;;;;;;31.60;16.43;;;;;;;;;;5093204;28;20838;-82
2023/12/04 06:47:00;;;;;;;18.27;11.00;;;;;;;;;;5093496;28;20502;-85
2023/12/04 06:49:27;;;;;;;26.90;15.00;;;;;;;;;;5093315;28;20773;-83
2023/12/04 06:51:53;;;;;;;23.03;14.03;;;;;;;;;;5093355;28;20420;-84
2023/12/04 06:54:19;;;;;;;24.17;15.10;;;;;;;;;;5093515;28;20765;-83
2023/12/04 06:56:45;;;;;;;27.23;14.10;;;;;;;;;;5093421;28;20413;-84
2023/12/04 06:59:11;;;;;;;30.53;18.67;;;;;;;;;;5092915;28;20751;-85
2023/12/04 07:01:37;;;;;;;28.03;17.00;;;;;;;;;;5093313;28;20442;-84
2023/12/04 07:04:09;;;;;;;29.20;18.40;;;;;;;;;;5093129;28;20500;-83
2023/12/04 07:06:35;;;;;;;35.07;18.97;;;;;;;;;;5093092;28;20537;-84
2023/12/04 07:09:01;;;;;;;27.43;17.50;;;;;;;;;;5093170;28;20450;-83
2023/12/04 07:11:27;;;;;;;28.53;15.97;;;;;;;;;;5093054;28;20905;-82
2023/12/04 07:13:53;;;;;;;22.27;12.27;;;;;;;;;;5092753;28;20508;-83
2023/12/04 07:16:19;;;;;;;22.00;12.83;;;;;;;;;;5093185;28;20589;-81
2023/12/04 07:18:54;;;;;;;20.27;12.33;;;;;;;;;;5093284;28;20418;-82
2023/12/04 07:21:20;;;;;;;19.03;12.13;;;;;;;;;;5092915;28;20409;-83
2023/12/04 07:23:46;;;;;;;22.50;12.53;;;;;;;;;;5051789;28;20529;-84
2023/12/04 07:26:12;;;;;;;29.63;17.30;;;;;;;;;;5093000;28;20945;-84
2023/12/04 07:28:37;;;;;;;26.10;17.00;;;;;;;;;;5092755;28;20452;-82
2023/12/04 07:31:04;;;;;;;23.83;13.87;;;;;;;;;;5093062;28;20622;-83
2023/12/04 07:33:30;;;;;;;26.47;14.50;;;;;;;;;;5092933;28;20528;-85
2023/12/04 07:35:56;;;;;;;15.07;10.67;;;;;;;;;;5092840;28;20498;-82
2023/12/04 07:38:22;;;;;;;25.40;13.33;;;;;;;;;;5093010;28;20766;-83
2023/12/04 07:40:48;;;;;;;14.50;11.10;;;;;;;;;;5092846;28;20561;-85
2023/12/04 07:43:14;;;;;;;24.67;14.53;;;;;;;;;;5092854;28;20476;-82
2023/12/04 07:45:43;;;;;;;30.00;15.40;;;;;;;;;;5092550;28;20441;-85
2023/12/04 07:48:09;;;;;;;23.80;13.27;;;;;;;;;;5092760;28;20919;-81
2023/12/04 07:50:35;;;;;;;32.42;17.15;;;;;;;;;;5092420;28;20408;-83
2023/12/04 07:53:01;;;;;;;26.17;15.00;;;;;;;;;;5096808;28;20172;-83
2023/12/04 07:55:27;;;;;;;25.70;13.80;;;;;;;;;;5096851;28;20410;-84
2023/12/04 07:57:52;;;;;;;31.73;14.53;;;;;;;;;;5096792;28;20922;-83
2023/12/04 08:00:19;;;;;;;26.90;15.10;;;;;;;;;;5096354;28;20437;-82
2023/12/04 08:02:45;;;;;;;20.53;11.97;;;;;;;;;;5095989;28;20621;-83
2023/12/04 08:05:12;;;;;;;21.67;12.47;;;;;;;;;;5096536;28;20401;-84
2023/12/04 08:07:38;;;;;;;23.90;14.10;;;;;;;;;;5096321;28;20469;-81
2023/12/04 08:10:04;;;;;;;23.97;14.10;;;;;;;;;;5096504;28;20406;-82
2023/12/04 08:12:33;;;;;;;24.93;14.77;;;;;;;;;;5096364;28;20412;-83
2023/12/04 08:14:59;;;;;;;23.90;14.57;;;;;;;;;;5096066;28;20413;-81
2023/12/04 08:17:25;;;;;;;18.90;13.00;;;;;;;;;;5096466;28;20410;-83
2023/12/04 08:19:51;;;;;;;26.37;15.80;;;;;;;;;;5096144;28;20412;-85
2023/12/04 08:22:17;;;;;;;24.60;13.37;;;;;;;;;;5096150;28;20471;-86
2023/12/04 08:24:43;;;;;;;18.20;10.40;;;;;;;;;;5096204;28;20983;-85
2023/12/04 08:27:09;;;;;;;17.37;10.43;;;;;;;;;;5095948;28;20413;-83
2023/12/04 08:29:35;;;;;;;26.63;14.57;;;;;;;;;;5095608;28;20409;-84
2023/12/04 08:32:04;;;;;;;27.00;14.50;;;;;;;;;;5077200;28;20762;-84
2023/12/04 08:34:31;;;;;;;26.53;14.87;;;;;;;;;;5095349;28;20504;-82
2023/12/04 08:36:57;;;;;;;22.60;14.27;;;;;;;;;;5095494;28;20446;-83
2023/12/04 08:39:23;;;;;;;20.27;13.67;;;;;;;;;;5095283;28;20921;-83
2023/12/04 08:41:48;;;;;;;28.63;15.20;;;;;;;;;;5095325;28;20417;-83
2023/12/04 08:44:15;;;;;;;24.10;13.67;;;;;;;;;;5057544;28;20445;-83
2023/12/04 08:46:45;;;;;;;25.27;15.40;;;;;;;;;;5093822;28;20414;-83
2023/12/04 08:49:12;;;;;;;16.20;9.40;;;;;;;;;;5095482;28;20449;-83
2023/12/04 08:51:38;;;;;;;22.47;13.00;;;;;;;;;;5095485;28;20417;-83
2023/12/04 08:54:03;;;;;;;16.50;9.90;;;;;;;;;;5095948;28;20771;-83
2023/12/04 08:56:29;;;;;;;25.50;15.17;;;;;;;;;;5095679;28;20417;-83
2023/12/04 08:58:57;;;;;;;31.30;17.63;;;;;;;;;;5076963;28;20532;-82
2023/12/04 09:01:23;;;;;;;19.83;15.50;;;;;;;;;;5095405;28;20409;-82
2023/12/04 09:03:49;;;;;;;35.27;19.60;;;;;;;;;;5094296;28;20468;-82
2023/12/04 09:06:15;;;;;;;31.80;18.07;;;;;;;;;;5094750;28;20792;-82
2023/12/04 09:08:41;;;;;;;28.60;17.07;;;;;;;;;;5094518;28;20470;-82
2023/12/04 09:11:07;;;;;;;23.33;14.53;;;;;;;;;;5094904;28;20414;-82
2023/12/04 09:13:34;;;;;;;21.70;14.57;;;;;;;;;;5093645;28;20425;-82
2023/12/04 09:16:03;;;;;;;23.10;15.07;;;;;;;;;;5094292;28;20396;-82
2023/12/04 09:18:35;;;;;;;19.27;12.07;;;;;;;;;;5095266;28;20402;-82
2023/12/04 09:21:01;;;;;;;29.87;16.13;;;;;;;;;;5095086;28;20406;-82
2023/12/04 09:23:27;;;;;;;35.70;18.90;;;;;;;;;;5094937;28;20476;-83
2023/12/04 09:25:53;;;;;;;33.20;16.00;;;;;;;;;;5095046;28;20410;-82
2023/12/04 09:28:19;;;;;;;29.30;17.10;;;;;;;;;;5076473;28;20425;-83
2023/12/04 09:30:45;;;;;;;25.30;13.27;;;;;;;;;;5094917;28;20420;-83
2023/12/04 09:33:11;;;;;;;24.93;14.63;;;;;;;;;;5094837;28;20421;-83
2023/12/04 09:35:37;;;;;;;29.90;17.57;;;;;;;;;;5094759;28;20402;-81
2023/12/04 09:38:03;;;;;;;29.70;17.60;;;;;;;;;;5098540;28;20421;-81
2023/12/04 09:40:29;;;;;;;32.30;17.67;;;;;;;;;;5114861;28;20478;-80
2023/12/04 09:42:58;;;;;;;25.57;12.87;;;;;;;;;;5114854;28;20481;-80
2023/12/04 09:45:25;;;;;;;32.63;18.50;;;;;;;;;;5114750;28;20398;-80
2023/12/04 09:47:51;;;;;;;30.57;17.93;;;;;;;;;;5043195;28;20943;-80
2023/12/04 09:50:20;;;;;;;33.17;19.83;;;;;;;;;;5094158;28;20500;-80
2023/12/04 09:52:48;;;;;;;32.20;17.07;;;;;;;;;;5094514;28;20510;-80
2023/12/04 09:55:15;;;;;;;25.13;13.90;;;;;;;;;;5094523;28;20788;-81
2023/12/04 09:57:42;;;;;;;33.73;17.60;;;;;;;;;;5094471;28;20444;-81
2023/12/04 10:00:12;;;;;;;23.70;13.43;;;;;;;;;;5093959;28;20410;-81
2023/12/04 10:02:39;;;;;;;29.10;15.47;;;;;;;;;;5094215;28;20548;-81
2023/12/04 10:05:05;;;;;;;29.40;15.23;;;;;;;;;;5093845;28;20844;-81
2023/12/04 10:07:31;;;;;;;26.63;14.33;;;;;;;;;;5093672;28;21061;-79
2023/12/04 10:09:57;;;;;;;26.57;12.97;;;;;;;;;;5093538;28;20425;-80
2023/12/04 10:12:23;;;;;;;27.33;17.70;;;;;;;;;;5093649;28;20404;-81
2023/12/04 10:15:06;;;;;;;22.17;14.70;;;;;;;;;;5093075;28;20448;-82
2023/12/04 10:17:39;;;;;;;28.00;17.00;;;;;;;;;;5091996;28;20813;-83
2023/12/04 10:20:12;;;;;;;22.67;12.87;;;;;;;;;;5092683;28;20550;-81
2023/12/04 10:22:38;;;;;;;27.07;15.00;;;;;;;;;;5093601;28;20465;-83
2023/12/04 10:25:17;;;;;;;26.17;15.60;;;;;;;;;;5093980;28;20455;-82
2023/12/04 10:27:43;;;;;;;19.23;13.30;;;;;;;;;;5093512;28;20494;-81
2023/12/04 10:30:12;;;;;;;20.53;12.13;;;;;;;;;;5092924;28;20433;-80
2023/12/04 10:32:39;;;;;;;15.03;10.23;;;;;;;;;;5092895;28;20410;-80
2023/12/04 10:35:09;;;;;;;23.57;13.27;;;;;;;;;;5093129;28;20902;-80
2023/12/04 10:37:37;;;;;;;19.70;12.63;;;;;;;;;;5092112;28;20410;-83
2023/12/04 10:40:03;;;;;;;26.13;13.17;;;;;;;;;;5093393;28;20403;-80
2023/12/04 10:42:32;;;;;;;22.20;13.60;;;;;;;;;;5093645;28;20544;-81
2023/12/04 10:44:58;;;;;;;13.90;8.43;;;;;;;;;;5093301;28;20440;-82
2023/12/04 10:47:25;;;;;;;25.90;14.10;;;;;;;;;;5051768;28;20433;-80
2023/12/04 10:49:51;;;;;;;22.93;14.67;;;;;;;;;;5092778;28;20504;-83
2023/12/04 10:52:21;;;;;;;18.50;10.57;;;;;;;;;;5093537;28;20437;-82
2023/12/04 10:54:47;;;;;;;26.40;15.30;;;;;;;;;;5093175;28;20939;-75
2023/12/04 10:57:16;;;;;;;23.50;14.50;;;;;;;;;;5093305;28;20433;-76
2023/12/04 10:59:42;;;;;;;25.90;15.00;;;;;;;;;;5092993;28;20415;-76
2023/12/04 11:02:12;;;;;;;12.60;7.93;;;;;;;;;;5093190;28;20898;-77
2023/12/04 11:04:39;;;;;;;24.73;15.10;;;;;;;;;;5093122;28;20420;-75
2023/12/04 11:07:05;;;;;;;26.37;15.20;;;;;;;;;;5093037;28;20455;-78
2023/12/04 11:09:32;;;;;;;27.30;18.13;;;;;;;;;;5093275;28;20415;-77
2023/12/04 11:12:02;;;;;;;26.80;16.93;;;;;;;;;;5093250;28;20879;-79
2023/12/04 11:14:31;;;;;;;25.17;16.30;;;;;;;;;;5092861;28;20414;-78
2023/12/04 11:17:03;;;;;;;13.33;9.90;;;;;;;;;;5093068;28;20410;-78
2023/12/04 11:19:32;;;;;;;23.43;14.03;;;;;;;;;;5093061;28;20402;-78
2023/12/04 11:21:59;;;;;;;24.87;14.17;;;;;;;;;;5092258;28;20426;-78
2023/12/04 11:24:25;;;;;;;25.83;17.67;;;;;;;;;;5089843;28;20418;-78
2023/12/04 11:26:52;;;;;;;22.77;15.40;;;;;;;;;;5092405;28;20407;-78
2023/12/04 11:29:19;;;;;;;20.87;13.90;;;;;;;;;;5092648;28;20424;-78
2023/12/04 11:31:46;;;;;;;21.27;13.00;;;;;;;;;;5093042;28;20417;-78
2023/12/04 11:34:12;;;;;;;27.67;15.77;;;;;;;;;;5093032;28;20418;-78
2023/12/04 11:36:38;;;;;;;17.83;11.67;;;;;;;;;;5092834;28;20466;-78
2023/12/04 11:39:09;;;;;;;19.13;11.47;;;;;;;;;;5093037;28;20750;-78
2023/12/04 11:41:35;;;;;;;20.57;12.47;;;;;;;;;;5092939;28;20413;-78
2023/12/04 11:44:01;;;;;;;20.93;13.83;;;;;;;;;;5092191;28;20469;-78
2023/12/04 11:46:31;;;;;;;19.83;14.30;;;;;;;;;;5092684;28;20404;-78
2023/12/04 11:48:58;;;;;;;14.43;8.90;;;;;;;;;;5051355;28;20476;-79
2023/12/04 11:51:51;;;;;;;19.50;12.53;;;;;;;;;;5092804;28;20788;-79
2023/12/04 11:54:22;;;;;;;22.87;12.70;;;;;;;;;;5090443;28;20477;-79
2023/12/04 11:57:00;;;;;;;19.10;12.07;;;;;;;;;;5092714;28;20816;-78
2023/12/04 11:59:26;;;;;;;14.50;9.57;;;;;;;;;;5092414;28;20409;-78
2023/12/04 12:01:56;;;;;;;20.20;12.27;;;;;;;;;;5092527;28;20962;-78
2023/12/04 12:04:22;;;;;;;18.67;12.60;;;;;;;;;;5092485;28;20419;-78
2023/12/04 12:06:48;;;;;;;20.93;12.90;;;;;;;;;;5092487;28;20450;-78
2023/12/04 12:09:14;;;;;;;21.70;12.30;;;;;;;;;;5092562;28;20774;-78
2023/12/04 12:11:40;;;;;;;21.70;11.87;;;;;;;;;;5092350;28;20761;-78
2023/12/04 12:14:06;;;;;;;23.80;13.67;;;;;;;;;;5092315;28;20403;-78
2023/12/04 12:16:32;;;;;;;23.30;14.20;;;;;;;;;;5092511;28;20966;-78
2023/12/04 12:18:58;;;;;;;19.03;11.63;;;;;;;;;;5092543;28;20458;-78
2023/12/04 12:21:24;;;;;;;19.10;12.27;;;;;;;;;;5092595;28;20409;-78
2023/12/04 12:23:50;;;;;;;18.63;12.30;;;;;;;;;;5092484;28;20480;-78
2023/12/04 12:26:16;;;;;;;15.47;8.73;;;;;;;;;;5092664;28;20410;-78
2023/12/04 12:28:42;;;;;;;21.30;12.07;;;;;;;;;;5092077;28;20415;-78
2023/12/04 12:31:08;;;;;;;18.43;11.57;;;;;;;;;;5092333;28;20406;-78
2023/12/04 12:33:34;;;;;;;20.63;12.53;;;;;;;;;;5092419;28;20424;-78
2023/12/04 12:36:03;;;;;;;21.37;12.03;;;;;;;;;;5092387;28;20402;-78
2023/12/04 12:38:29;;;;;;;19.63;12.00;;;;;;;;;;5094003;28;20410;-78
2023/12/04 12:40:55;;;;;;;14.30;8.80;;;;;;;;;;5095978;28;20924;-78
2023/12/04 12:43:23;;;;;;;16.20;12.03;;;;;;;;;;5095604;28;20475;-78
2023/12/04 12:45:49;;;;;;;25.37;16.87;;;;;;;;;;5095890;28;20394;-78
2023/12/04 12:48:15;;;;;;;22.87;14.10;;;;;;;;;;5077923;28;20797;-78
2023/12/04 12:50:43;;;;;;;27.87;17.50;;;;;;;;;;5095429;28;20745;-78
2023/12/04 12:53:08;;;;;;;25.87;17.30;;;;;;;;;;5095738;28;20403;-78
2023/12/04 12:55:38;;;;;;;20.60;12.37;;;;;;;;;;5095632;28;20878;-78
2023/12/04 12:58:05;;;;;;;23.67;13.80;;;;;;;;;;5095384;28;20414;-78
2023/12/04 13:00:31;;;;;;;20.83;13.10;;;;;;;;;;5095573;28;20394;-78
2023/12/04 13:02:57;;;;;;;17.20;10.63;;;;;;;;;;5095533;28;21002;-78
2023/12/04 13:05:23;;;;;;;21.40;12.80;;;;;;;;;;5090937;28;20408;-78
2023/12/04 13:07:49;;;;;;;14.83;7.63;;;;;;;;;;5058609;28;20473;-78
2023/12/04 13:10:15;;;;;;;15.53;10.90;;;;;;;;;;5077122;28;20922;-79
2023/12/04 13:12:41;;;;;;;18.87;11.60;;;;;;;;;;5094862;28;20442;-78
2023/12/04 13:15:07;;;;;;;20.10;10.97;;;;;;;;;;5095334;28;20406;-78
2023/12/04 13:17:33;;;;;;;21.67;14.23;;;;;;;;;;5095305;28;20411;-78
2023/12/04 13:19:59;;;;;;;19.57;12.50;;;;;;;;;;5077066;28;20418;-78
2023/12/04 13:22:26;;;;;;;17.13;11.33;;;;;;;;;;5095124;28;20912;-78
2023/12/04 13:24:52;;;;;;;21.87;11.40;;;;;;;;;;5077048;28;20423;-78
2023/12/04 13:27:18;;;;;;;20.70;12.13;;;;;;;;;;5094405;28;20412;-78
2023/12/04 13:29:44;;;;;;;23.20;12.47;;;;;;;;;;5094346;28;20422;-78
2023/12/04 13:32:10;;;;;;;19.30;12.63;;;;;;;;;;5095033;28;20407;-78
2023/12/04 13:34:36;;;;;;;21.40;11.40;;;;;;;;;;5094907;28;20414;-78
2023/12/04 13:37:02;;;;;;;19.47;12.60;;;;;;;;;;5094907;28;20436;-78
2023/12/04 13:39:47;;;;;;;20.50;12.43;;;;;;;;;;5094893;28;20418;-78
2023/12/04 13:44:58;;;;;;;16.97;11.73;;;;;;;;;;5094961;28;20833;-78
2023/12/04 13:47:23;;;;;;;17.33;10.70;;;;;;;;;;5094796;28;20403;-78
2023/12/04 13:49:49;;;;;;;19.60;11.73;;;;;;;;;;5094219;28;20414;-78
2023/12/04 13:52:18;;;;;;;17.67;10.47;;;;;;;;;;5094604;28;20410;-78
2023/12/04 13:54:47;;;;;;;19.13;11.57;;;;;;;;;;5094670;28;20764;-78
2023/12/04 13:57:32;;;;;;;20.10;13.17;;;;;;;;;;5094572;28;20505;-78
2023/12/04 13:59:59;;;;;;;19.20;11.90;;;;;;;;;;5094546;28;20469;-78
2023/12/04 14:02:25;;;;;;;18.50;11.90;;;;;;;;;;5094377;28;20457;-78
2023/12/04 14:04:51;;;;;;;18.83;11.77;;;;;;;;;;5094396;28;20406;-78
2023/12/04 14:07:18;;;;;;;18.60;11.10;;;;;;;;;;5094080;28;20454;-78
2023/12/04 14:09:45;;;;;;;16.17;10.40;;;;;;;;;;5094334;28;20422;-78
2023/12/04 14:12:11;;;;;;;17.00;10.53;;;;;;;;;;5052588;28;20423;-78
2023/12/04 14:14:37;;;;;;;17.50;11.27;;;;;;;;;;5075643;28;20429;-78
2023/12/04 14:17:04;;;;;;;19.17;11.17;;;;;;;;;;5094093;28;20411;-78
2023/12/04 14:19:30;;;;;;;18.40;9.90;;;;;;;;;;5093750;28;20419;-78